createdAt,value
2022-10-26T00:02:07.782Z,13.97
2022-10-26T00:04:38.815Z,14.07
2022-10-26T00:07:15.633Z,14.42
2022-10-26T00:09:46.272Z,14.09
2022-10-26T00:12:15.703Z,14.27
2022-10-26T00:14:49.329Z,14.43
2022-10-26T00:17:20.757Z,14.69
2022-10-26T00:19:49.431Z,14.36
2022-10-26T00:22:18.214Z,14.47
2022-10-26T00:24:48.203Z,14.46
2022-10-26T00:27:17.317Z,14.23
2022-10-26T00:29:47.751Z,14.27
2022-10-26T00:32:16.278Z,14.21
2022-10-26T00:34:44.896Z,14.36
2022-10-26T00:37:13.607Z,14.09
2022-10-26T00:39:42.846Z,14.37
2022-10-26T00:42:16.894Z,14.61
2022-10-26T00:45:09.244Z,14.70
2022-10-26T00:47:44.710Z,14.04
2022-10-26T00:50:17.183Z,14.70
2022-10-26T00:52:47.227Z,14.61
2022-10-26T00:55:21.248Z,14.58
2022-10-26T00:57:55.143Z,14.70
2022-10-26T01:00:34.387Z,14.98
2022-10-26T01:03:08.148Z,15.05
2022-10-26T01:05:43.050Z,14.69
2022-10-26T01:08:13.188Z,14.51
2022-10-26T01:10:44.005Z,14.68
2022-10-26T01:13:15.572Z,14.61
2022-10-26T01:16:00.363Z,14.66
2022-10-26T01:18:40.998Z,14.89
2022-10-26T01:21:55.872Z,14.87
2022-10-26T01:25:07.577Z,15.00
2022-10-26T01:27:41.250Z,15.02
2022-10-26T01:30:36.440Z,15.29
2022-10-26T01:33:31.673Z,14.64
2022-10-26T01:36:12.739Z,14.88
2022-10-26T01:38:55.998Z,14.89
2022-10-26T01:41:32.636Z,14.55
2022-10-26T01:44:06.657Z,14.32
2022-10-26T01:46:42.715Z,14.66
2022-10-26T01:49:15.652Z,14.43
2022-10-26T01:51:50.608Z,14.94
2022-10-26T01:54:19.627Z,14.46
2022-10-26T01:56:53.121Z,14.85
2022-10-26T01:59:36.448Z,14.80
2022-10-26T02:02:50.551Z,14.43
2022-10-26T02:05:33.557Z,14.94
2022-10-26T02:08:23.797Z,14.93
2022-10-26T02:11:15.204Z,14.93
2022-10-26T02:13:49.625Z,15.07
2022-10-26T02:16:23.161Z,14.89
2022-10-26T02:19:05.074Z,14.73
2022-10-26T02:21:40.381Z,14.81
2022-10-26T02:24:13.881Z,14.64
2022-10-26T02:26:47.095Z,15.12
2022-10-26T02:29:21.167Z,14.65
2022-10-26T02:31:53.036Z,14.81
2022-10-26T02:34:29.095Z,14.43
2022-10-26T02:37:02.609Z,14.86
2022-10-26T02:39:34.745Z,14.74
2022-10-26T02:42:07.014Z,15.04
2022-10-26T02:44:44.728Z,15.18
2022-10-26T02:47:15.365Z,15.12
2022-10-26T02:49:51.930Z,14.96
2022-10-26T02:52:30.017Z,15.20
2022-10-26T02:55:06.852Z,15.15
2022-10-26T02:57:40.517Z,15.51
2022-10-26T03:00:12.407Z,15.35
2022-10-26T03:02:43.519Z,15.26
2022-10-26T03:05:22.423Z,15.09
2022-10-26T03:07:51.398Z,15.39
2022-10-26T03:10:20.731Z,15.49
2022-10-26T03:12:49.263Z,15.61
2022-10-26T03:15:18.115Z,15.73
2022-10-26T03:17:46.998Z,15.70
2022-10-26T03:20:19.991Z,15.39
2022-10-26T03:22:52.763Z,15.80
2022-10-26T03:25:24.219Z,15.33
2022-10-26T03:27:59.534Z,15.78
2022-10-26T03:30:30.484Z,15.54
2022-10-26T03:33:00.679Z,15.99
2022-10-26T03:35:30.976Z,15.18
2022-10-26T03:37:59.483Z,15.38
2022-10-26T03:40:28.691Z,15.51
2022-10-26T03:42:57.172Z,15.54
2022-10-26T03:45:25.985Z,15.61
2022-10-26T03:47:54.973Z,15.57
2022-10-26T03:50:24.867Z,15.51
2022-10-26T03:52:56.514Z,15.69
2022-10-26T03:55:26.185Z,15.68
2022-10-26T03:57:54.791Z,15.90
2022-10-26T04:00:25.034Z,15.52
2022-10-26T04:02:59.547Z,16.10
2022-10-26T04:05:31.200Z,15.71
2022-10-26T04:08:04.418Z,15.71
2022-10-26T04:10:34.152Z,15.50
2022-10-26T04:13:02.826Z,16.14
2022-10-26T04:15:36.199Z,15.48
2022-10-26T04:18:05.627Z,15.61
2022-10-26T04:20:39.282Z,15.71
2022-10-26T04:23:14.204Z,16.02
2022-10-26T04:25:46.863Z,15.65
2022-10-26T04:28:20.384Z,15.45
2022-10-26T04:30:50.086Z,15.68
2022-10-26T04:33:18.651Z,15.58
2022-10-26T04:35:48.187Z,15.81
2022-10-26T04:38:18.124Z,15.64
2022-10-26T04:40:47.349Z,15.76
2022-10-26T04:43:16.300Z,15.49
2022-10-26T04:45:47.664Z,15.82
2022-10-26T04:48:16.170Z,16.09
2022-10-26T04:50:44.614Z,15.62
2022-10-26T04:53:13.094Z,15.81
2022-10-26T04:55:47.714Z,15.38
2022-10-26T04:58:17.302Z,15.77
2022-10-26T05:00:47.223Z,15.93
2022-10-26T05:03:16.025Z,15.80
2022-10-26T05:05:44.765Z,16.18
2022-10-26T05:08:14.602Z,15.55
2022-10-26T05:10:53.603Z,15.63
2022-10-26T05:13:23.336Z,15.85
2022-10-26T05:15:54.633Z,15.70
2022-10-26T05:18:27.186Z,15.52
2022-10-26T05:20:56.838Z,15.95
2022-10-26T05:23:26.091Z,15.28
2022-10-26T05:25:57.439Z,15.57
2022-10-26T05:28:29.093Z,15.75
2022-10-26T05:31:00.760Z,15.92
2022-10-26T05:33:29.626Z,15.50
2022-10-26T05:35:58.448Z,16.01
2022-10-26T05:38:27.736Z,15.74
2022-10-26T05:40:59.502Z,15.60
2022-10-26T05:43:28.699Z,15.78
2022-10-26T05:46:05.222Z,15.93
2022-10-26T05:48:34.784Z,15.94
2022-10-26T05:51:06.825Z,15.90
2022-10-26T05:53:35.920Z,15.63
2022-10-26T05:56:19.142Z,15.78
2022-10-26T05:58:53.032Z,15.40
2022-10-26T06:01:33.177Z,15.58
2022-10-26T06:04:20.670Z,15.47
2022-10-26T06:06:55.347Z,16.05
2022-10-26T06:09:28.987Z,15.69
2022-10-26T06:12:02.034Z,15.73
2022-10-26T06:14:32.152Z,15.68
2022-10-26T06:17:24.153Z,15.56
2022-10-26T06:20:18.440Z,15.67
2022-10-26T06:23:05.102Z,15.87
2022-10-26T06:25:48.494Z,15.93
2022-10-26T06:28:35.330Z,15.41
2022-10-26T06:31:04.081Z,15.71
2022-10-26T06:33:33.132Z,15.31
2022-10-26T06:36:20.120Z,15.36
2022-10-26T06:38:50.777Z,15.50
2022-10-26T06:41:23.962Z,15.42
2022-10-26T06:43:55.208Z,15.49
2022-10-26T06:49:28.106Z,15.51
2022-10-26T06:52:03.289Z,15.59
2022-10-26T06:54:51.336Z,15.64
2022-10-26T06:57:26.055Z,15.30
2022-10-26T07:00:03.407Z,15.24
2022-10-26T07:02:32.949Z,15.44
2022-10-26T07:05:02.007Z,15.76
2022-10-26T07:07:42.632Z,15.56
2022-10-26T07:10:12.783Z,15.65
2022-10-26T07:12:42.050Z,15.39
2022-10-26T07:15:14.547Z,15.18
2022-10-26T07:17:46.459Z,15.41
2022-10-26T07:20:16.025Z,15.66
2022-10-26T07:22:45.640Z,15.86
2022-10-26T07:25:14.860Z,15.71
2022-10-26T07:27:43.708Z,15.71
2022-10-26T07:30:15.076Z,15.63
2022-10-26T07:32:43.826Z,15.80
2022-10-26T07:35:14.657Z,16.24
2022-10-26T07:37:43.080Z,15.71
2022-10-26T07:40:13.281Z,16.27
2022-10-26T07:42:44.299Z,16.35
2022-10-26T07:45:18.204Z,16.36
2022-10-26T07:47:47.733Z,15.83
2022-10-26T07:50:24.553Z,16.25
2022-10-26T07:52:54.940Z,16.37
2022-10-26T07:55:27.040Z,16.54
2022-10-26T07:57:57.405Z,17.21
2022-10-26T08:00:29.812Z,16.81
2022-10-26T08:03:00.597Z,17.28
2022-10-26T08:08:00.704Z,17.63
2022-10-26T08:10:32.367Z,17.94
2022-10-26T08:13:01.920Z,17.40
2022-10-26T08:15:32.946Z,17.79
2022-10-26T08:18:01.698Z,17.84
2022-10-26T08:20:30.346Z,18.25
2022-10-26T08:23:00.215Z,17.93
2022-10-26T08:25:32.051Z,17.76
2022-10-26T08:28:04.278Z,17.85
2022-10-26T08:30:38.561Z,17.85
2022-10-26T08:33:09.467Z,18.05
2022-10-26T08:35:38.168Z,18.08
2022-10-26T08:38:07.885Z,18.52
2022-10-26T08:40:43.815Z,18.48
2022-10-26T08:43:23.422Z,18.64
2022-10-26T08:46:02.023Z,18.77
2022-10-26T08:48:37.766Z,18.61
2022-10-26T08:51:14.632Z,18.58
2022-10-26T08:53:49.667Z,18.32
2022-10-26T08:56:23.838Z,18.65
2022-10-26T08:58:58.794Z,19.09
2022-10-26T09:01:32.164Z,19.17
2022-10-26T09:04:04.239Z,19.31
2022-10-26T09:06:41.320Z,19.50
2022-10-26T09:09:18.638Z,20.25
2022-10-26T09:12:01.177Z,19.86
2022-10-26T09:14:43.660Z,19.86
2022-10-26T09:17:25.646Z,20.45
2022-10-26T09:20:34.581Z,20.25
2022-10-26T09:23:11.927Z,20.56
2022-10-26T09:25:42.634Z,20.44
2022-10-26T09:28:18.734Z,20.20
2022-10-26T09:30:49.324Z,20.62
2022-10-26T09:33:24.627Z,20.63
2022-10-26T09:35:59.278Z,20.34
2022-10-26T09:38:32.773Z,20.16
2022-10-26T09:41:06.767Z,20.73
2022-10-26T09:43:42.323Z,21.34
2022-10-26T09:46:20.853Z,21.14
2022-10-26T09:48:57.707Z,20.80
2022-10-26T09:51:27.212Z,21.18
2022-10-26T09:53:57.736Z,21.56
2022-10-26T09:56:29.859Z,22.17
2022-10-26T09:59:04.388Z,22.04
2022-10-26T10:01:41.610Z,21.98
2022-10-26T10:04:22.895Z,21.66
2022-10-26T10:06:54.115Z,22.81
2022-10-26T10:09:26.294Z,22.93
2022-10-26T10:12:02.615Z,22.74
2022-10-26T10:14:37.372Z,22.37
2022-10-26T10:17:18.597Z,22.63
2022-10-26T10:22:48.943Z,22.73
2022-10-26T10:25:33.484Z,22.53
2022-10-26T10:28:05.079Z,22.80
2022-10-26T10:30:37.307Z,22.32
2022-10-26T10:33:32.983Z,23.08
2022-10-26T10:36:03.598Z,22.89
2022-10-26T10:38:39.381Z,22.64
2022-10-26T10:41:21.575Z,22.53
2022-10-26T10:43:59.016Z,22.49
2022-10-26T10:46:31.833Z,22.23
2022-10-26T10:49:06.653Z,22.88
2022-10-26T10:51:43.470Z,22.67
2022-10-26T10:54:24.803Z,22.86
2022-10-26T10:56:59.494Z,22.69
2022-10-26T11:00:06.552Z,23.20
2022-10-26T11:03:11.564Z,22.82
2022-10-26T11:06:19.170Z,22.81
2022-10-26T11:11:48.538Z,22.28
2022-10-26T11:14:25.798Z,23.04
2022-10-26T11:17:07.037Z,22.80
2022-10-26T11:19:48.135Z,22.93
2022-10-26T11:22:35.760Z,22.87
2022-10-26T11:25:19.751Z,22.54
2022-10-26T11:27:54.239Z,23.02
2022-10-26T11:30:31.694Z,22.72
2022-10-26T11:33:11.967Z,22.81
2022-10-26T11:35:57.432Z,22.46
2022-10-26T11:38:46.279Z,23.01
2022-10-26T11:41:46.270Z,22.72
2022-10-26T11:44:25.333Z,22.40
2022-10-26T11:47:01.334Z,22.47
2022-10-26T11:49:41.236Z,23.21
2022-10-26T11:52:40.547Z,23.15
2022-10-26T11:55:14.870Z,22.82
2022-10-26T11:57:47.085Z,23.07
2022-10-26T12:00:21.709Z,23.37
2022-10-26T12:02:57.302Z,22.83
2022-10-26T12:05:45.858Z,22.57
2022-10-26T12:08:21.709Z,22.46
2022-10-26T12:10:57.816Z,23.04
2022-10-26T12:13:36.749Z,23.06
2022-10-26T12:19:16.483Z,22.80
2022-10-26T12:21:45.820Z,23.00
2022-10-26T12:24:34.306Z,23.09
2022-10-26T12:27:05.916Z,23.20
2022-10-26T12:29:49.758Z,23.15
2022-10-26T12:32:55.162Z,23.07
2022-10-26T12:35:45.341Z,23.07
2022-10-26T12:39:01.135Z,23.22
2022-10-26T12:44:39.975Z,22.79
2022-10-26T12:47:10.154Z,23.67
2022-10-26T12:50:03.126Z,23.21
2022-10-26T12:52:59.121Z,23.41
2022-10-26T12:56:34.236Z,23.54
2022-10-26T12:59:42.297Z,22.75
2022-10-26T13:06:21.014Z,23.75
2022-10-26T13:08:58.576Z,23.39
2022-10-26T13:11:33.980Z,23.26
2022-10-26T13:14:06.609Z,23.79
2022-10-26T13:16:36.334Z,23.86
2022-10-26T13:19:06.559Z,23.77
2022-10-26T13:21:49.182Z,23.85
2022-10-26T13:24:19.283Z,23.84
2022-10-26T13:27:43.779Z,23.77
2022-10-26T13:30:45.473Z,23.90
2022-10-26T13:33:40.485Z,23.24
2022-10-26T13:36:32.163Z,23.85
2022-10-26T13:39:08.515Z,23.74
2022-10-26T13:41:48.710Z,23.20
2022-10-26T13:44:26.110Z,23.34
2022-10-26T13:47:01.433Z,23.51
2022-10-26T13:49:36.906Z,23.61
2022-10-26T13:52:16.847Z,23.71
2022-10-26T13:54:51.775Z,23.64
2022-10-26T13:57:30.965Z,23.44
2022-10-26T14:00:04.153Z,22.91
2022-10-26T14:05:20.430Z,23.60
2022-10-26T14:07:56.935Z,23.67
2022-10-26T14:10:32.222Z,23.97
2022-10-26T14:13:02.848Z,23.98
2022-10-26T14:15:36.033Z,23.45
2022-10-26T14:18:06.561Z,23.73
2022-10-26T14:20:36.370Z,22.88
2022-10-26T14:23:27.984Z,23.40
2022-10-26T14:25:59.399Z,23.66
2022-10-26T14:28:33.654Z,23.61
2022-10-26T14:31:23.856Z,23.53
2022-10-26T14:33:55.635Z,23.45
2022-10-26T14:36:30.728Z,23.01
2022-10-26T14:39:10.245Z,23.07
2022-10-26T14:41:41.548Z,23.16
2022-10-26T14:44:20.625Z,23.34
2022-10-26T14:46:50.530Z,23.59
2022-10-26T14:49:24.194Z,23.35
2022-10-26T14:52:00.636Z,23.69
2022-10-26T14:54:32.188Z,23.06
2022-10-26T14:57:02.866Z,22.97
2022-10-26T14:59:33.250Z,23.19
2022-10-26T15:02:22.957Z,23.31
2022-10-26T15:05:02.526Z,22.45
2022-10-26T15:07:40.979Z,22.89
2022-10-26T15:10:50.056Z,22.77
2022-10-26T15:13:30.017Z,23.13
2022-10-26T15:16:09.629Z,22.85
2022-10-26T15:18:40.390Z,22.92
2022-10-26T15:21:24.699Z,22.89
2022-10-26T15:23:55.360Z,23.08
2022-10-26T15:26:26.419Z,22.74
2022-10-26T15:28:57.082Z,22.21
2022-10-26T15:31:35.766Z,22.85
2022-10-26T15:34:25.616Z,22.79
2022-10-26T15:36:55.842Z,22.77
2022-10-26T15:39:26.122Z,22.52
2022-10-26T15:41:58.404Z,22.67
2022-10-26T15:44:27.382Z,22.86
2022-10-26T15:47:08.647Z,22.74
2022-10-26T15:49:37.874Z,22.24
2022-10-26T15:52:11.169Z,22.40
2022-10-26T15:54:40.769Z,21.65
2022-10-26T15:57:17.954Z,22.00
2022-10-26T15:59:51.591Z,21.80
2022-10-26T16:02:20.543Z,22.34
2022-10-26T16:04:49.494Z,22.33
2022-10-26T16:07:19.185Z,21.87
2022-10-26T16:09:47.895Z,21.75
2022-10-26T16:12:18.195Z,22.09
2022-10-26T16:15:04.352Z,21.66
2022-10-26T16:17:35.143Z,21.65
2022-10-26T16:20:09.087Z,21.61
2022-10-26T16:22:40.767Z,21.21
2022-10-26T16:28:04.148Z,21.43
2022-10-26T16:30:38.411Z,21.45
2022-10-26T16:33:10.149Z,21.48
2022-10-26T16:41:37.851Z,21.42
2022-10-26T16:44:13.585Z,21.17
2022-10-26T16:46:43.910Z,21.40
2022-10-26T16:52:20.246Z,20.90
2022-10-26T16:54:49.158Z,21.12
2022-10-26T16:57:18.249Z,21.23
2022-10-26T16:59:49.503Z,21.33
2022-10-26T17:02:20.030Z,20.72
2022-10-26T17:04:51.714Z,21.27
2022-10-26T17:07:22.401Z,21.28
2022-10-26T17:09:51.959Z,21.40
2022-10-26T17:15:03.112Z,21.01
2022-10-26T17:17:32.094Z,21.03
2022-10-26T17:20:01.315Z,20.90
2022-10-26T17:22:31.101Z,21.17
2022-10-26T17:25:00.508Z,20.82
2022-10-26T17:27:29.779Z,21.18
2022-10-26T17:30:00.677Z,21.13
2022-10-26T17:32:33.010Z,20.79
2022-10-26T17:35:03.223Z,20.69
2022-10-26T17:37:39.626Z,20.81
2022-10-26T17:40:12.588Z,20.83
2022-10-26T17:42:47.494Z,20.74
2022-10-26T17:45:19.121Z,20.59
2022-10-26T17:47:48.411Z,20.90
2022-10-26T17:50:18.116Z,20.86
2022-10-26T17:52:47.704Z,20.80
2022-10-26T17:55:18.906Z,20.59
2022-10-26T17:57:49.975Z,20.89
2022-10-26T18:00:27.549Z,20.84
2022-10-26T18:03:00.871Z,20.65
2022-10-26T18:05:31.820Z,20.41
2022-10-26T18:08:04.071Z,20.31
2022-10-26T18:10:38.684Z,20.26
2022-10-26T18:13:08.173Z,20.21
2022-10-26T18:15:46.899Z,20.14
2022-10-26T18:18:21.362Z,20.15
2022-10-26T18:20:54.425Z,19.87
2022-10-26T18:23:25.799Z,20.37
2022-10-26T18:26:06.654Z,20.35
2022-10-26T18:28:37.978Z,20.17
2022-10-26T18:31:11.379Z,19.64
2022-10-26T18:33:40.466Z,20.29
2022-10-26T18:36:12.528Z,20.34
2022-10-26T18:38:45.677Z,20.19
2022-10-26T18:41:18.624Z,20.09
2022-10-26T18:43:51.089Z,20.11
2022-10-26T18:46:27.635Z,20.03
2022-10-26T18:48:58.726Z,20.06
2022-10-26T18:51:34.135Z,19.90
2022-10-26T18:54:04.679Z,20.02
2022-10-26T18:56:33.951Z,19.94
2022-10-26T18:59:03.147Z,20.03
2022-10-26T19:01:41.759Z,19.94
2022-10-26T19:04:17.001Z,19.57
2022-10-26T19:06:47.666Z,19.69
2022-10-26T19:09:17.763Z,19.35
2022-10-26T19:11:47.351Z,19.19
2022-10-26T19:14:16.067Z,19.38
2022-10-26T19:16:48.073Z,19.62
2022-10-26T19:19:20.803Z,19.52
2022-10-26T19:21:51.005Z,19.76
2022-10-26T19:24:23.288Z,19.79
2022-10-26T19:26:56.999Z,19.61
2022-10-26T19:29:26.095Z,19.61
2022-10-26T19:32:00.620Z,19.56
2022-10-26T19:34:30.332Z,19.41
2022-10-26T19:37:00.739Z,19.41
2022-10-26T19:39:31.564Z,19.63
2022-10-26T19:42:00.807Z,19.53
2022-10-26T19:44:30.694Z,19.65
2022-10-26T19:47:01.166Z,19.73
2022-10-26T19:49:33.125Z,19.64
2022-10-26T19:52:03.416Z,19.59
2022-10-26T19:54:33.947Z,19.49
2022-10-26T19:57:07.926Z,19.49
2022-10-26T19:59:41.032Z,19.28
2022-10-26T20:02:11.271Z,19.06
2022-10-26T20:04:40.882Z,19.42
2022-10-26T20:07:09.993Z,19.30
2022-10-26T20:09:39.290Z,19.12
2022-10-26T20:12:12.573Z,19.39
2022-10-26T20:14:42.673Z,19.39
2022-10-26T20:17:12.795Z,19.53
2022-10-26T20:19:46.102Z,19.58
2022-10-26T20:22:20.213Z,19.52
2022-10-26T20:24:58.014Z,19.38
2022-10-26T20:27:27.588Z,19.28
2022-10-26T20:30:00.854Z,19.25
2022-10-26T20:32:34.557Z,19.12
2022-10-26T20:37:56.012Z,19.18
2022-10-26T20:40:27.815Z,18.87
2022-10-26T20:42:57.703Z,18.76
2022-10-26T20:45:30.788Z,19.20
2022-10-26T20:48:04.247Z,19.07
2022-10-26T20:50:35.528Z,19.05
2022-10-26T20:53:12.744Z,18.93
2022-10-26T20:55:47.882Z,19.12
2022-10-26T20:58:24.688Z,18.77
2022-10-26T21:01:01.989Z,18.83
2022-10-26T21:03:38.444Z,18.78
2022-10-26T21:06:07.894Z,18.95
2022-10-26T21:08:46.872Z,19.01
2022-10-26T21:11:15.936Z,19.14
2022-10-26T21:13:47.923Z,19.02
2022-10-26T21:16:19.323Z,19.04
2022-10-26T21:18:52.569Z,19.21
2022-10-26T21:21:23.914Z,19.17
2022-10-26T21:23:58.340Z,19.15
2022-10-26T21:26:28.672Z,18.86
2022-10-26T21:28:58.092Z,18.85
2022-10-26T21:31:27.410Z,19.02
2022-10-26T21:34:03.630Z,19.00
2022-10-26T21:36:34.177Z,18.98
2022-10-26T21:39:05.623Z,18.98
2022-10-26T21:41:36.658Z,18.97
2022-10-26T21:44:23.144Z,18.83
2022-10-26T21:47:01.997Z,18.55
2022-10-26T21:49:34.296Z,18.74
2022-10-26T21:52:03.676Z,18.74
2022-10-26T21:54:39.050Z,18.51
2022-10-26T21:57:08.304Z,18.54
2022-10-26T21:59:38.294Z,18.55
2022-10-26T22:02:09.222Z,18.48
2022-10-26T22:04:40.713Z,18.34
2022-10-26T22:07:12.208Z,18.46
2022-10-26T22:10:07.552Z,18.55
2022-10-26T22:12:38.912Z,18.46
2022-10-26T22:15:09.623Z,18.35
2022-10-26T22:17:44.278Z,18.39
2022-10-26T22:20:17.744Z,18.29
2022-10-26T22:22:48.500Z,18.18
2022-10-26T22:25:20.343Z,18.02
2022-10-26T22:27:50.559Z,18.23
2022-10-26T22:30:19.971Z,18.21
2022-10-26T22:32:51.447Z,18.10
2022-10-26T22:35:29.569Z,18.16
2022-10-26T22:38:01.224Z,18.20
2022-10-26T22:40:31.497Z,18.27
2022-10-26T22:43:01.616Z,18.42
2022-10-26T22:45:35.795Z,18.42
2022-10-26T22:50:47.012Z,18.41
2022-10-26T23:02:02.705Z,18.82
2022-10-26T23:07:50.997Z,18.72
2022-10-26T23:13:25.758Z,18.68
2022-10-26T23:16:08.243Z,18.64
2022-10-26T23:21:53.052Z,18.94
2022-10-26T23:24:30.659Z,18.84
2022-10-26T23:27:18.376Z,18.75
2022-10-26T23:29:50.307Z,18.70
2022-10-26T23:35:24.993Z,18.89
2022-10-26T23:38:02.623Z,18.89
2022-10-26T23:40:45.846Z,18.88
2022-10-26T23:43:36.721Z,18.53
